Weather at Miami County Airport

Public forecast

Using degrees Fahrenheit for public forecast. Weather courtesy of forecast.io.

Closest aviation weather report (METAR) to Miami County Airport

Closest report is New Century Aircenter Airport, 17.5 nm (32.4 km) N. Retrieved 2020/12/05 10:53 UTC (28 minutes ago):

KIXD 051053Z AUTO 23003KT 10SM CLR M02/M05 A3013 RMK AO2 SLP206 T10171050

Closest aviation forecast (TAF) to Miami County Airport

Closest forecast is New Century Aircenter Airport, 17.5 nm (32.4 km) N. Retrieved 2020/12/05 06:22 UTC (5 hours ago):

TAF KIXD 050520Z 0506/0606 VRB03KT P6SM SKC FM051600 33008KT P6SM SKC